sensor_id;sensor_type;location;lat;lon;timestamp;P1;durP1;ratioP1;P2;durP2;ratioP2
38053;SDS011;23859;50.672;7.164;2023-04-03T00:01:38;5.85;;;3.00;;
38053;SDS011;23859;50.672;7.164;2023-04-03T00:04:04;5.03;;;2.35;;
38053;SDS011;23859;50.672;7.164;2023-04-03T00:06:31;3.17;;;2.30;;
38053;SDS011;23859;50.672;7.164;2023-04-03T00:08:57;4.78;;;2.13;;
38053;SDS011;23859;50.672;7.164;2023-04-03T00:11:23;4.68;;;1.75;;
38053;SDS011;23859;50.672;7.164;2023-04-03T00:13:50;2.67;;;1.75;;
38053;SDS011;23859;50.672;7.164;2023-04-03T00:16:16;4.45;;;1.85;;
38053;SDS011;23859;50.672;7.164;2023-04-03T00:18:42;8.20;;;2.22;;
38053;SDS011;23859;50.672;7.164;2023-04-03T00:21:10;4.65;;;2.08;;
38053;SDS011;23859;50.672;7.164;2023-04-03T00:23:38;2.03;;;1.80;;
38053;SDS011;23859;50.672;7.164;2023-04-03T00:26:04;3.13;;;1.90;;
38053;SDS011;23859;50.672;7.164;2023-04-03T00:28:30;3.28;;;1.92;;
38053;SDS011;23859;50.672;7.164;2023-04-03T00:30:56;9.68;;;2.22;;
38053;SDS011;23859;50.672;7.164;2023-04-03T00:33:22;3.03;;;1.77;;
38053;SDS011;23859;50.672;7.164;2023-04-03T00:35:49;4.20;;;2.72;;
38053;SDS011;23859;50.672;7.164;2023-04-03T00:38:16;2.92;;;1.95;;
38053;SDS011;23859;50.672;7.164;2023-04-03T00:40:44;2.95;;;1.92;;
38053;SDS011;23859;50.672;7.164;2023-04-03T00:43:12;5.72;;;2.00;;
38053;SDS011;23859;50.672;7.164;2023-04-03T00:45:53;4.30;;;2.08;;
38053;SDS011;23859;50.672;7.164;2023-04-03T00:48:34;4.28;;;1.70;;
38053;SDS011;23859;50.672;7.164;2023-04-03T00:51:06;7.03;;;2.05;;
38053;SDS011;23859;50.672;7.164;2023-04-03T00:53:40;6.07;;;2.22;;
38053;SDS011;23859;50.672;7.164;2023-04-03T00:56:27;3.95;;;1.73;;
38053;SDS011;23859;50.672;7.164;2023-04-03T00:58:57;4.35;;;2.20;;
38053;SDS011;23859;50.672;7.164;2023-04-03T01:01:33;6.60;;;2.20;;
38053;SDS011;23859;50.672;7.164;2023-04-03T01:04:03;7.80;;;2.30;;
38053;SDS011;23859;50.672;7.164;2023-04-03T01:06:32;4.68;;;2.20;;
38053;SDS011;23859;50.672;7.164;2023-04-03T01:09:00;6.25;;;2.60;;
38053;SDS011;23859;50.672;7.164;2023-04-03T01:11:27;5.10;;;2.85;;
38053;SDS011;23859;50.672;7.164;2023-04-03T01:13:53;10.23;;;2.45;;
38053;SDS011;23859;50.672;7.164;2023-04-03T01:16:19;3.50;;;2.72;;
38053;SDS011;23859;50.672;7.164;2023-04-03T01:18:45;6.40;;;1.90;;
38053;SDS011;23859;50.672;7.164;2023-04-03T01:23:58;4.88;;;2.30;;
38053;SDS011;23859;50.672;7.164;2023-04-03T01:26:31;4.10;;;2.22;;
38053;SDS011;23859;50.672;7.164;2023-04-03T01:28:59;3.67;;;1.98;;
38053;SDS011;23859;50.672;7.164;2023-04-03T01:31:27;5.90;;;2.78;;
38053;SDS011;23859;50.672;7.164;2023-04-03T01:34:05;5.38;;;2.10;;
38053;SDS011;23859;50.672;7.164;2023-04-03T01:36:31;4.90;;;2.25;;
38053;SDS011;23859;50.672;7.164;2023-04-03T01:38:58;3.85;;;2.17;;
38053;SDS011;23859;50.672;7.164;2023-04-03T01:41:25;3.78;;;2.75;;
38053;SDS011;23859;50.672;7.164;2023-04-03T01:43:51;3.53;;;2.22;;
38053;SDS011;23859;50.672;7.164;2023-04-03T01:46:18;4.63;;;2.13;;
38053;SDS011;23859;50.672;7.164;2023-04-03T01:48:45;6.78;;;2.45;;
38053;SDS011;23859;50.672;7.164;2023-04-03T01:51:11;3.95;;;2.22;;
38053;SDS011;23859;50.672;7.164;2023-04-03T01:53:37;4.43;;;2.20;;
38053;SDS011;23859;50.672;7.164;2023-04-03T01:56:03;5.53;;;2.65;;
38053;SDS011;23859;50.672;7.164;2023-04-03T01:58:30;4.05;;;2.17;;
38053;SDS011;23859;50.672;7.164;2023-04-03T02:00:56;6.22;;;2.70;;
38053;SDS011;23859;50.672;7.164;2023-04-03T02:03:22;5.93;;;2.65;;
38053;SDS011;23859;50.672;7.164;2023-04-03T02:05:49;6.18;;;2.13;;
38053;SDS011;23859;50.672;7.164;2023-04-03T02:08:15;3.00;;;2.10;;
38053;SDS011;23859;50.672;7.164;2023-04-03T02:10:46;4.40;;;2.50;;
38053;SDS011;23859;50.672;7.164;2023-04-03T02:13:13;5.78;;;2.22;;
38053;SDS011;23859;50.672;7.164;2023-04-03T02:15:39;5.45;;;2.72;;
38053;SDS011;23859;50.672;7.164;2023-04-03T02:18:06;6.43;;;2.42;;
38053;SDS011;23859;50.672;7.164;2023-04-03T02:20:33;3.88;;;2.20;;
38053;SDS011;23859;50.672;7.164;2023-04-03T02:22:59;7.88;;;2.88;;
38053;SDS011;23859;50.672;7.164;2023-04-03T02:25:26;3.88;;;2.05;;
38053;SDS011;23859;50.672;7.164;2023-04-03T02:27:52;3.50;;;2.55;;
38053;SDS011;23859;50.672;7.164;2023-04-03T02:30:18;5.70;;;2.50;;
38053;SDS011;23859;50.672;7.164;2023-04-03T02:32:44;3.92;;;1.90;;
38053;SDS011;23859;50.672;7.164;2023-04-03T02:35:11;8.55;;;2.33;;
38053;SDS011;23859;50.672;7.164;2023-04-03T02:37:37;6.38;;;2.47;;
38053;SDS011;23859;50.672;7.164;2023-04-03T02:40:04;6.47;;;3.03;;
38053;SDS011;23859;50.672;7.164;2023-04-03T02:42:30;4.18;;;2.20;;
38053;SDS011;23859;50.672;7.164;2023-04-03T02:44:56;4.70;;;2.05;;
38053;SDS011;23859;50.672;7.164;2023-04-03T02:47:23;6.60;;;2.53;;
38053;SDS011;23859;50.672;7.164;2023-04-03T02:49:49;3.72;;;2.42;;
38053;SDS011;23859;50.672;7.164;2023-04-03T02:52:15;6.55;;;2.47;;
38053;SDS011;23859;50.672;7.164;2023-04-03T02:54:41;2.15;;;1.95;;
38053;SDS011;23859;50.672;7.164;2023-04-03T02:57:07;5.75;;;3.28;;
38053;SDS011;23859;50.672;7.164;2023-04-03T02:59:36;7.00;;;3.00;;
38053;SDS011;23859;50.672;7.164;2023-04-03T03:02:05;2.22;;;1.90;;
38053;SDS011;23859;50.672;7.164;2023-04-03T03:04:32;6.45;;;2.10;;
38053;SDS011;23859;50.672;7.164;2023-04-03T03:06:59;2.72;;;2.10;;
38053;SDS011;23859;50.672;7.164;2023-04-03T03:09:25;3.70;;;2.65;;
38053;SDS011;23859;50.672;7.164;2023-04-03T03:11:51;7.70;;;2.40;;
38053;SDS011;23859;50.672;7.164;2023-04-03T03:14:17;3.58;;;2.38;;
38053;SDS011;23859;50.672;7.164;2023-04-03T03:16:43;4.60;;;2.53;;
38053;SDS011;23859;50.672;7.164;2023-04-03T03:19:10;5.55;;;2.47;;
38053;SDS011;23859;50.672;7.164;2023-04-03T03:21:36;3.83;;;2.40;;
38053;SDS011;23859;50.672;7.164;2023-04-03T03:24:02;3.60;;;2.28;;
38053;SDS011;23859;50.672;7.164;2023-04-03T03:26:28;3.50;;;2.05;;
38053;SDS011;23859;50.672;7.164;2023-04-03T03:28:54;5.90;;;2.70;;
38053;SDS011;23859;50.672;7.164;2023-04-03T03:31:20;6.05;;;3.28;;
38053;SDS011;23859;50.672;7.164;2023-04-03T03:33:47;6.40;;;2.58;;
38053;SDS011;23859;50.672;7.164;2023-04-03T03:36:13;7.10;;;2.63;;
38053;SDS011;23859;50.672;7.164;2023-04-03T03:38:39;7.28;;;2.75;;
38053;SDS011;23859;50.672;7.164;2023-04-03T03:41:05;4.25;;;2.28;;
38053;SDS011;23859;50.672;7.164;2023-04-03T03:43:31;5.45;;;2.70;;
38053;SDS011;23859;50.672;7.164;2023-04-03T03:45:57;4.20;;;2.20;;
38053;SDS011;23859;50.672;7.164;2023-04-03T03:48:23;4.38;;;2.65;;
38053;SDS011;23859;50.672;7.164;2023-04-03T03:50:49;11.35;;;2.75;;
38053;SDS011;23859;50.672;7.164;2023-04-03T03:53:16;6.47;;;2.60;;
38053;SDS011;23859;50.672;7.164;2023-04-03T03:55:42;3.85;;;2.35;;
38053;SDS011;23859;50.672;7.164;2023-04-03T03:58:08;5.88;;;2.83;;
38053;SDS011;23859;50.672;7.164;2023-04-03T04:00:34;7.18;;;2.92;;
38053;SDS011;23859;50.672;7.164;2023-04-03T04:03:00;7.03;;;3.03;;
38053;SDS011;23859;50.672;7.164;2023-04-03T04:05:26;4.35;;;2.65;;
38053;SDS011;23859;50.672;7.164;2023-04-03T04:07:52;6.97;;;2.35;;
38053;SDS011;23859;50.672;7.164;2023-04-03T04:10:18;7.53;;;2.65;;
38053;SDS011;23859;50.672;7.164;2023-04-03T04:12:45;11.55;;;2.63;;
38053;SDS011;23859;50.672;7.164;2023-04-03T04:15:11;6.35;;;2.50;;
38053;SDS011;23859;50.672;7.164;2023-04-03T04:17:37;5.38;;;2.53;;
38053;SDS011;23859;50.672;7.164;2023-04-03T04:20:03;4.68;;;2.83;;
38053;SDS011;23859;50.672;7.164;2023-04-03T04:22:30;9.57;;;3.38;;
38053;SDS011;23859;50.672;7.164;2023-04-03T04:24:56;8.25;;;2.80;;
38053;SDS011;23859;50.672;7.164;2023-04-03T04:27:22;9.65;;;3.50;;
38053;SDS011;23859;50.672;7.164;2023-04-03T04:29:48;5.22;;;2.63;;
38053;SDS011;23859;50.672;7.164;2023-04-03T04:32:14;5.22;;;2.47;;
38053;SDS011;23859;50.672;7.164;2023-04-03T04:34:40;8.30;;;3.15;;
38053;SDS011;23859;50.672;7.164;2023-04-03T04:37:06;8.80;;;3.08;;
38053;SDS011;23859;50.672;7.164;2023-04-03T04:39:32;5.82;;;2.50;;
38053;SDS011;23859;50.672;7.164;2023-04-03T04:41:59;5.13;;;2.42;;
38053;SDS011;23859;50.672;7.164;2023-04-03T04:44:25;6.28;;;3.50;;
38053;SDS011;23859;50.672;7.164;2023-04-03T04:46:51;5.57;;;3.25;;
38053;SDS011;23859;50.672;7.164;2023-04-03T04:49:18;5.72;;;3.35;;
38053;SDS011;23859;50.672;7.164;2023-04-03T04:51:44;3.47;;;2.83;;
38053;SDS011;23859;50.672;7.164;2023-04-03T04:54:10;5.82;;;2.92;;
38053;SDS011;23859;50.672;7.164;2023-04-03T04:56:36;4.60;;;2.90;;
38053;SDS011;23859;50.672;7.164;2023-04-03T04:59:02;8.40;;;2.80;;
38053;SDS011;23859;50.672;7.164;2023-04-03T05:01:28;6.88;;;3.30;;
38053;SDS011;23859;50.672;7.164;2023-04-03T05:03:54;5.60;;;3.03;;
38053;SDS011;23859;50.672;7.164;2023-04-03T05:06:20;6.88;;;3.03;;
38053;SDS011;23859;50.672;7.164;2023-04-03T05:08:46;6.63;;;3.33;;
38053;SDS011;23859;50.672;7.164;2023-04-03T05:11:12;5.75;;;3.38;;
38053;SDS011;23859;50.672;7.164;2023-04-03T05:13:38;4.85;;;3.28;;
38053;SDS011;23859;50.672;7.164;2023-04-03T05:16:04;8.02;;;3.20;;
38053;SDS011;23859;50.672;7.164;2023-04-03T05:18:31;10.57;;;3.25;;
38053;SDS011;23859;50.672;7.164;2023-04-03T05:20:57;5.97;;;3.15;;
38053;SDS011;23859;50.672;7.164;2023-04-03T05:23:23;8.70;;;3.42;;
38053;SDS011;23859;50.672;7.164;2023-04-03T05:25:49;8.40;;;2.85;;
38053;SDS011;23859;50.672;7.164;2023-04-03T05:28:15;8.98;;;3.63;;
38053;SDS011;23859;50.672;7.164;2023-04-03T05:30:41;5.75;;;3.40;;
38053;SDS011;23859;50.672;7.164;2023-04-03T05:33:07;10.77;;;3.00;;
38053;SDS011;23859;50.672;7.164;2023-04-03T05:35:35;8.07;;;2.58;;
38053;SDS011;23859;50.672;7.164;2023-04-03T05:38:04;10.05;;;2.88;;
38053;SDS011;23859;50.672;7.164;2023-04-03T05:40:30;8.60;;;3.22;;
38053;SDS011;23859;50.672;7.164;2023-04-03T05:42:56;5.43;;;2.55;;
38053;SDS011;23859;50.672;7.164;2023-04-03T05:45:22;4.05;;;2.40;;
38053;SDS011;23859;50.672;7.164;2023-04-03T05:47:48;4.38;;;2.17;;
38053;SDS011;23859;50.672;7.164;2023-04-03T05:50:15;6.40;;;2.80;;
38053;SDS011;23859;50.672;7.164;2023-04-03T05:52:42;4.75;;;2.22;;
38053;SDS011;23859;50.672;7.164;2023-04-03T05:55:12;5.40;;;2.88;;
38053;SDS011;23859;50.672;7.164;2023-04-03T05:57:38;7.57;;;3.05;;
38053;SDS011;23859;50.672;7.164;2023-04-03T06:00:05;9.88;;;3.22;;
38053;SDS011;23859;50.672;7.164;2023-04-03T06:02:34;9.88;;;3.08;;
38053;SDS011;23859;50.672;7.164;2023-04-03T06:05:00;3.90;;;2.38;;
38053;SDS011;23859;50.672;7.164;2023-04-03T06:07:27;8.40;;;2.97;;
38053;SDS011;23859;50.672;7.164;2023-04-03T06:09:53;7.40;;;2.00;;
38053;SDS011;23859;50.672;7.164;2023-04-03T06:12:21;5.95;;;1.98;;
38053;SDS011;23859;50.672;7.164;2023-04-03T06:14:48;4.90;;;2.60;;
38053;SDS011;23859;50.672;7.164;2023-04-03T06:17:14;7.35;;;2.55;;
38053;SDS011;23859;50.672;7.164;2023-04-03T06:19:43;5.38;;;3.28;;
38053;SDS011;23859;50.672;7.164;2023-04-03T06:22:09;3.63;;;1.85;;
38053;SDS011;23859;50.672;7.164;2023-04-03T06:24:36;7.80;;;2.03;;
38053;SDS011;23859;50.672;7.164;2023-04-03T06:27:02;3.47;;;1.67;;
38053;SDS011;23859;50.672;7.164;2023-04-03T06:29:29;4.82;;;1.67;;
38053;SDS011;23859;50.672;7.164;2023-04-03T06:31:55;5.63;;;1.63;;
38053;SDS011;23859;50.672;7.164;2023-04-03T06:34:21;8.52;;;2.25;;
38053;SDS011;23859;50.672;7.164;2023-04-03T06:36:48;3.25;;;1.70;;
38053;SDS011;23859;50.672;7.164;2023-04-03T06:39:16;5.75;;;1.80;;
38053;SDS011;23859;50.672;7.164;2023-04-03T06:41:47;9.45;;;1.67;;
38053;SDS011;23859;50.672;7.164;2023-04-03T06:44:14;6.15;;;2.50;;
38053;SDS011;23859;50.672;7.164;2023-04-03T06:46:41;6.50;;;2.00;;
38053;SDS011;23859;50.672;7.164;2023-04-03T06:49:08;5.70;;;1.80;;
38053;SDS011;23859;50.672;7.164;2023-04-03T06:51:34;5.95;;;1.60;;
38053;SDS011;23859;50.672;7.164;2023-04-03T06:54:01;4.75;;;1.58;;
38053;SDS011;23859;50.672;7.164;2023-04-03T06:56:28;3.78;;;1.50;;
38053;SDS011;23859;50.672;7.164;2023-04-03T06:58:55;4.75;;;1.50;;
38053;SDS011;23859;50.672;7.164;2023-04-03T07:01:26;4.60;;;2.22;;
38053;SDS011;23859;50.672;7.164;2023-04-03T07:03:55;5.80;;;1.98;;
38053;SDS011;23859;50.672;7.164;2023-04-03T07:06:21;6.53;;;1.90;;
38053;SDS011;23859;50.672;7.164;2023-04-03T07:08:52;4.80;;;1.63;;
38053;SDS011;23859;50.672;7.164;2023-04-03T07:11:18;5.68;;;1.90;;
38053;SDS011;23859;50.672;7.164;2023-04-03T07:13:45;4.50;;;1.67;;
38053;SDS011;23859;50.672;7.164;2023-04-03T07:16:11;5.18;;;2.08;;
38053;SDS011;23859;50.672;7.164;2023-04-03T07:18:37;6.82;;;1.90;;
38053;SDS011;23859;50.672;7.164;2023-04-03T07:21:04;3.95;;;1.42;;
38053;SDS011;23859;50.672;7.164;2023-04-03T07:23:31;6.00;;;1.65;;
38053;SDS011;23859;50.672;7.164;2023-04-03T07:25:57;5.13;;;1.60;;
38053;SDS011;23859;50.672;7.164;2023-04-03T07:28:23;5.70;;;1.60;;
38053;SDS011;23859;50.672;7.164;2023-04-03T07:30:50;3.97;;;2.00;;
38053;SDS011;23859;50.672;7.164;2023-04-03T07:33:19;6.68;;;1.77;;
38053;SDS011;23859;50.672;7.164;2023-04-03T07:35:46;5.90;;;1.60;;
38053;SDS011;23859;50.672;7.164;2023-04-03T07:38:12;5.45;;;1.70;;
38053;SDS011;23859;50.672;7.164;2023-04-03T07:40:38;4.90;;;1.67;;
38053;SDS011;23859;50.672;7.164;2023-04-03T07:43:05;6.00;;;2.22;;
38053;SDS011;23859;50.672;7.164;2023-04-03T07:45:31;5.18;;;1.80;;
38053;SDS011;23859;50.672;7.164;2023-04-03T07:47:59;3.80;;;1.85;;
38053;SDS011;23859;50.672;7.164;2023-04-03T07:50:25;5.38;;;1.75;;
38053;SDS011;23859;50.672;7.164;2023-04-03T07:52:52;3.58;;;2.55;;
38053;SDS011;23859;50.672;7.164;2023-04-03T07:55:21;4.78;;;1.60;;
38053;SDS011;23859;50.672;7.164;2023-04-03T07:57:47;5.05;;;1.88;;
38053;SDS011;23859;50.672;7.164;2023-04-03T08:00:14;5.72;;;2.38;;
38053;SDS011;23859;50.672;7.164;2023-04-03T08:02:42;4.82;;;1.70;;
38053;SDS011;23859;50.672;7.164;2023-04-03T08:05:09;3.10;;;1.65;;
38053;SDS011;23859;50.672;7.164;2023-04-03T08:07:36;5.32;;;1.80;;
38053;SDS011;23859;50.672;7.164;2023-04-03T08:10:03;5.07;;;1.90;;
38053;SDS011;23859;50.672;7.164;2023-04-03T08:12:29;6.53;;;1.95;;
38053;SDS011;23859;50.672;7.164;2023-04-03T08:14:56;5.55;;;2.92;;
38053;SDS011;23859;50.672;7.164;2023-04-03T08:17:25;4.47;;;1.73;;
38053;SDS011;23859;50.672;7.164;2023-04-03T08:19:51;6.45;;;2.22;;
38053;SDS011;23859;50.672;7.164;2023-04-03T08:22:17;4.30;;;1.80;;
38053;SDS011;23859;50.672;7.164;2023-04-03T08:24:43;6.07;;;2.50;;
38053;SDS011;23859;50.672;7.164;2023-04-03T08:27:09;3.25;;;1.85;;
38053;SDS011;23859;50.672;7.164;2023-04-03T08:29:35;6.15;;;1.60;;
38053;SDS011;23859;50.672;7.164;2023-04-03T08:32:02;4.25;;;1.60;;
38053;SDS011;23859;50.672;7.164;2023-04-03T08:34:30;4.93;;;1.70;;
38053;SDS011;23859;50.672;7.164;2023-04-03T08:36:59;3.72;;;1.52;;
38053;SDS011;23859;50.672;7.164;2023-04-03T08:39:26;4.60;;;1.90;;
38053;SDS011;23859;50.672;7.164;2023-04-03T08:41:52;7.60;;;1.70;;
38053;SDS011;23859;50.672;7.164;2023-04-03T08:49:44;8.80;;;2.53;;
38053;SDS011;23859;50.672;7.164;2023-04-03T08:52:38;3.60;;;1.90;;
38053;SDS011;23859;50.672;7.164;2023-04-03T08:55:05;6.10;;;1.60;;
38053;SDS011;23859;50.672;7.164;2023-04-03T08:57:41;6.55;;;1.60;;
38053;SDS011;23859;50.672;7.164;2023-04-03T09:00:23;4.68;;;1.75;;
38053;SDS011;23859;50.672;7.164;2023-04-03T09:02:55;3.90;;;1.75;;
38053;SDS011;23859;50.672;7.164;2023-04-03T09:13:47;6.05;;;1.90;;
38053;SDS011;23859;50.672;7.164;2023-04-03T09:16:27;4.70;;;1.90;;
38053;SDS011;23859;50.672;7.164;2023-04-03T09:19:20;7.28;;;1.70;;
38053;SDS011;23859;50.672;7.164;2023-04-03T09:21:47;4.85;;;1.50;;
38053;SDS011;23859;50.672;7.164;2023-04-03T09:24:13;7.75;;;1.92;;
38053;SDS011;23859;50.672;7.164;2023-04-03T09:27:01;5.68;;;2.08;;
38053;SDS011;23859;50.672;7.164;2023-04-03T09:29:31;4.03;;;1.52;;
38053;SDS011;23859;50.672;7.164;2023-04-03T09:32:02;4.68;;;1.58;;
38053;SDS011;23859;50.672;7.164;2023-04-03T09:34:42;3.90;;;1.63;;
38053;SDS011;23859;50.672;7.164;2023-04-03T09:37:10;3.28;;;1.42;;
38053;SDS011;23859;50.672;7.164;2023-04-03T09:39:58;5.75;;;1.45;;
38053;SDS011;23859;50.672;7.164;2023-04-03T09:42:24;4.57;;;1.38;;
38053;SDS011;23859;50.672;7.164;2023-04-03T09:44:58;4.70;;;1.40;;
38053;SDS011;23859;50.672;7.164;2023-04-03T09:47:29;1.50;;;1.20;;
38053;SDS011;23859;50.672;7.164;2023-04-03T09:52:39;6.65;;;1.45;;
38053;SDS011;23859;50.672;7.164;2023-04-03T09:55:10;2.53;;;1.40;;
38053;SDS011;23859;50.672;7.164;2023-04-03T09:57:40;2.15;;;1.40;;
38053;SDS011;23859;50.672;7.164;2023-04-03T10:00:19;4.00;;;1.50;;
38053;SDS011;23859;50.672;7.164;2023-04-03T10:02:52;5.03;;;1.30;;
38053;SDS011;23859;50.672;7.164;2023-04-03T10:05:39;6.32;;;1.65;;
38053;SDS011;23859;50.672;7.164;2023-04-03T10:10:45;4.65;;;1.55;;
38053;SDS011;23859;50.672;7.164;2023-04-03T10:13:14;5.63;;;1.42;;
38053;SDS011;23859;50.672;7.164;2023-04-03T10:15:44;3.83;;;1.48;;
38053;SDS011;23859;50.672;7.164;2023-04-03T10:20:57;4.80;;;1.30;;
38053;SDS011;23859;50.672;7.164;2023-04-03T10:23:33;3.00;;;1.00;;
38053;SDS011;23859;50.672;7.164;2023-04-03T10:26:17;3.50;;;1.38;;
38053;SDS011;23859;50.672;7.164;2023-04-03T10:31:44;2.92;;;1.10;;
38053;SDS011;23859;50.672;7.164;2023-04-03T10:36:59;5.75;;;1.90;;
38053;SDS011;23859;50.672;7.164;2023-04-03T10:39:36;2.50;;;1.13;;
38053;SDS011;23859;50.672;7.164;2023-04-03T10:42:33;5.85;;;1.30;;
38053;SDS011;23859;50.672;7.164;2023-04-03T10:48:22;4.57;;;1.90;;
38053;SDS011;23859;50.672;7.164;2023-04-03T10:50:55;6.13;;;1.23;;
38053;SDS011;23859;50.672;7.164;2023-04-03T10:53:35;2.30;;;1.20;;
38053;SDS011;23859;50.672;7.164;2023-04-03T10:59:40;2.53;;;1.20;;
38053;SDS011;23859;50.672;7.164;2023-04-03T11:02:19;2.95;;;1.33;;
38053;SDS011;23859;50.672;7.164;2023-04-03T11:04:54;2.60;;;1.05;;
38053;SDS011;23859;50.672;7.164;2023-04-03T11:07:40;2.45;;;1.20;;
38053;SDS011;23859;50.672;7.164;2023-04-03T11:10:13;6.25;;;1.48;;
38053;SDS011;23859;50.672;7.164;2023-04-03T11:12:57;2.55;;;1.20;;
38053;SDS011;23859;50.672;7.164;2023-04-03T11:15:34;2.67;;;1.00;;
38053;SDS011;23859;50.672;7.164;2023-04-03T11:20:34;2.28;;;1.23;;
38053;SDS011;23859;50.672;7.164;2023-04-03T11:25:39;3.22;;;1.30;;
38053;SDS011;23859;50.672;7.164;2023-04-03T11:28:11;4.47;;;1.10;;
38053;SDS011;23859;50.672;7.164;2023-04-03T11:30:44;3.53;;;1.08;;
38053;SDS011;23859;50.672;7.164;2023-04-03T11:36:42;3.80;;;1.40;;
38053;SDS011;23859;50.672;7.164;2023-04-03T11:38:49;3.63;;;1.70;;
38053;SDS011;23859;50.672;7.164;2023-04-03T11:41:23;2.78;;;1.23;;
38053;SDS011;23859;50.672;7.164;2023-04-03T11:46:29;3.88;;;1.33;;
38053;SDS011;23859;50.672;7.164;2023-04-03T12:05:52;2.92;;;1.20;;
38053;SDS011;23859;50.672;7.164;2023-04-03T12:08:28;3.03;;;1.15;;
38053;SDS011;23859;50.672;7.164;2023-04-03T12:16:24;1.27;;;0.82;;
38053;SDS011;23859;50.672;7.164;2023-04-03T12:18:58;2.47;;;0.98;;
38053;SDS011;23859;50.672;7.164;2023-04-03T12:29:20;2.83;;;1.20;;
38053;SDS011;23859;50.672;7.164;2023-04-03T12:32:32;2.70;;;1.05;;
38053;SDS011;23859;50.672;7.164;2023-04-03T12:37:57;4.25;;;1.20;;
38053;SDS011;23859;50.672;7.164;2023-04-03T12:43:48;2.95;;;1.15;;
38053;SDS011;23859;50.672;7.164;2023-04-03T12:46:47;4.05;;;1.27;;
38053;SDS011;23859;50.672;7.164;2023-04-03T12:49:22;2.47;;;1.17;;
38053;SDS011;23859;50.672;7.164;2023-04-03T12:52:02;1.92;;;1.17;;
38053;SDS011;23859;50.672;7.164;2023-04-03T12:54:41;3.90;;;1.10;;
38053;SDS011;23859;50.672;7.164;2023-04-03T12:57:11;2.10;;;1.15;;
38053;SDS011;23859;50.672;7.164;2023-04-03T12:59:46;1.38;;;1.00;;
38053;SDS011;23859;50.672;7.164;2023-04-03T13:04:59;3.20;;;1.40;;
38053;SDS011;23859;50.672;7.164;2023-04-03T13:07:33;2.45;;;1.27;;
38053;SDS011;23859;50.672;7.164;2023-04-03T13:10:09;1.67;;;1.00;;
38053;SDS011;23859;50.672;7.164;2023-04-03T13:15:20;2.22;;;1.05;;
38053;SDS011;23859;50.672;7.164;2023-04-03T13:17:49;3.08;;;1.25;;
38053;SDS011;23859;50.672;7.164;2023-04-03T13:20:22;3.40;;;1.42;;
38053;SDS011;23859;50.672;7.164;2023-04-03T13:23:00;4.78;;;1.50;;
38053;SDS011;23859;50.672;7.164;2023-04-03T13:25:31;2.20;;;1.20;;
38053;SDS011;23859;50.672;7.164;2023-04-03T13:27:59;2.22;;;1.30;;
38053;SDS011;23859;50.672;7.164;2023-04-03T13:32:57;3.15;;;1.33;;
38053;SDS011;23859;50.672;7.164;2023-04-03T13:35:26;2.25;;;1.15;;
38053;SDS011;23859;50.672;7.164;2023-04-03T13:38:05;3.08;;;1.17;;
38053;SDS011;23859;50.672;7.164;2023-04-03T13:40:48;2.40;;;1.60;;
38053;SDS011;23859;50.672;7.164;2023-04-03T13:43:21;5.47;;;1.52;;
38053;SDS011;23859;50.672;7.164;2023-04-03T13:45:54;3.40;;;1.73;;
38053;SDS011;23859;50.672;7.164;2023-04-03T13:48:35;3.85;;;1.45;;
38053;SDS011;23859;50.672;7.164;2023-04-03T13:53:50;5.25;;;1.92;;
38053;SDS011;23859;50.672;7.164;2023-04-03T13:59:18;3.55;;;1.55;;
38053;SDS011;23859;50.672;7.164;2023-04-03T14:01:53;4.05;;;2.22;;
38053;SDS011;23859;50.672;7.164;2023-04-03T14:04:32;3.53;;;1.40;;
38053;SDS011;23859;50.672;7.164;2023-04-03T14:07:11;2.33;;;1.13;;
38053;SDS011;23859;50.672;7.164;2023-04-03T14:09:38;1.88;;;1.10;;
38053;SDS011;23859;50.672;7.164;2023-04-03T14:12:05;2.47;;;1.15;;
38053;SDS011;23859;50.672;7.164;2023-04-03T14:14:37;4.03;;;1.02;;
38053;SDS011;23859;50.672;7.164;2023-04-03T14:17:09;3.83;;;1.30;;
38053;SDS011;23859;50.672;7.164;2023-04-03T14:19:41;2.33;;;1.60;;
38053;SDS011;23859;50.672;7.164;2023-04-03T14:22:13;4.43;;;1.42;;
38053;SDS011;23859;50.672;7.164;2023-04-03T14:24:42;4.85;;;1.30;;
38053;SDS011;23859;50.672;7.164;2023-04-03T14:29:44;5.25;;;1.25;;
38053;SDS011;23859;50.672;7.164;2023-04-03T14:32:12;2.35;;;1.42;;
38053;SDS011;23859;50.672;7.164;2023-04-03T14:34:39;5.10;;;1.30;;
38053;SDS011;23859;50.672;7.164;2023-04-03T14:37:09;3.40;;;1.30;;
38053;SDS011;23859;50.672;7.164;2023-04-03T14:39:37;2.75;;;1.10;;
38053;SDS011;23859;50.672;7.164;2023-04-03T14:42:03;5.72;;;1.67;;
38053;SDS011;23859;50.672;7.164;2023-04-03T14:44:30;6.38;;;1.48;;
38053;SDS011;23859;50.672;7.164;2023-04-03T14:46:56;5.35;;;1.85;;
38053;SDS011;23859;50.672;7.164;2023-04-03T14:49:24;2.88;;;1.30;;
38053;SDS011;23859;50.672;7.164;2023-04-03T14:51:52;5.05;;;1.77;;
38053;SDS011;23859;50.672;7.164;2023-04-03T14:54:19;1.90;;;1.30;;
38053;SDS011;23859;50.672;7.164;2023-04-03T14:56:50;3.63;;;1.60;;
38053;SDS011;23859;50.672;7.164;2023-04-03T14:59:16;3.38;;;1.38;;
38053;SDS011;23859;50.672;7.164;2023-04-03T15:01:44;3.20;;;1.63;;
38053;SDS011;23859;50.672;7.164;2023-04-03T15:04:14;2.65;;;1.60;;
38053;SDS011;23859;50.672;7.164;2023-04-03T15:06:42;3.00;;;1.55;;
38053;SDS011;23859;50.672;7.164;2023-04-03T15:09:22;2.30;;;1.25;;
38053;SDS011;23859;50.672;7.164;2023-04-03T15:11:51;2.75;;;1.20;;
38053;SDS011;23859;50.672;7.164;2023-04-03T15:14:18;3.33;;;1.42;;
38053;SDS011;23859;50.672;7.164;2023-04-03T15:16:44;3.20;;;1.27;;
38053;SDS011;23859;50.672;7.164;2023-04-03T15:19:10;5.45;;;1.73;;
38053;SDS011;23859;50.672;7.164;2023-04-03T15:21:37;4.53;;;1.50;;
38053;SDS011;23859;50.672;7.164;2023-04-03T15:24:03;3.20;;;1.33;;
38053;SDS011;23859;50.672;7.164;2023-04-03T15:26:30;4.35;;;2.47;;
38053;SDS011;23859;50.672;7.164;2023-04-03T15:28:57;3.10;;;1.30;;
38053;SDS011;23859;50.672;7.164;2023-04-03T15:31:23;6.30;;;1.85;;
38053;SDS011;23859;50.672;7.164;2023-04-03T15:33:49;2.40;;;1.23;;
38053;SDS011;23859;50.672;7.164;2023-04-03T15:36:15;2.70;;;1.40;;
38053;SDS011;23859;50.672;7.164;2023-04-03T15:38:41;4.95;;;1.60;;
38053;SDS011;23859;50.672;7.164;2023-04-03T15:41:07;7.60;;;1.77;;
38053;SDS011;23859;50.672;7.164;2023-04-03T15:43:33;2.63;;;1.10;;
38053;SDS011;23859;50.672;7.164;2023-04-03T15:46:00;3.80;;;1.65;;
38053;SDS011;23859;50.672;7.164;2023-04-03T15:48:26;3.22;;;1.30;;
38053;SDS011;23859;50.672;7.164;2023-04-03T15:50:53;2.95;;;1.38;;
38053;SDS011;23859;50.672;7.164;2023-04-03T15:53:19;3.13;;;1.35;;
38053;SDS011;23859;50.672;7.164;2023-04-03T15:55:45;3.80;;;1.40;;
38053;SDS011;23859;50.672;7.164;2023-04-03T15:58:11;2.67;;;1.27;;
38053;SDS011;23859;50.672;7.164;2023-04-03T16:00:37;3.00;;;1.30;;
38053;SDS011;23859;50.672;7.164;2023-04-03T16:03:06;3.83;;;1.80;;
38053;SDS011;23859;50.672;7.164;2023-04-03T16:05:35;4.40;;;1.60;;
38053;SDS011;23859;50.672;7.164;2023-04-03T16:08:02;2.53;;;1.25;;
38053;SDS011;23859;50.672;7.164;2023-04-03T16:10:30;2.67;;;1.65;;
38053;SDS011;23859;50.672;7.164;2023-04-03T16:12:56;2.90;;;1.30;;
38053;SDS011;23859;50.672;7.164;2023-04-03T16:15:22;3.92;;;1.40;;
38053;SDS011;23859;50.672;7.164;2023-04-03T16:17:49;3.38;;;1.30;;
38053;SDS011;23859;50.672;7.164;2023-04-03T16:20:17;5.07;;;1.55;;
38053;SDS011;23859;50.672;7.164;2023-04-03T16:22:43;2.88;;;1.40;;
38053;SDS011;23859;50.672;7.164;2023-04-03T16:25:10;1.98;;;1.08;;
38053;SDS011;23859;50.672;7.164;2023-04-03T16:27:37;3.28;;;1.50;;
38053;SDS011;23859;50.672;7.164;2023-04-03T16:30:04;3.85;;;1.10;;
38053;SDS011;23859;50.672;7.164;2023-04-03T16:32:31;2.25;;;1.10;;
38053;SDS011;23859;50.672;7.164;2023-04-03T16:34:57;3.20;;;1.40;;
38053;SDS011;23859;50.672;7.164;2023-04-03T16:37:24;3.75;;;1.13;;
38053;SDS011;23859;50.672;7.164;2023-04-03T16:39:50;3.30;;;1.65;;